sensor_id;sensor_type;location;lat;lon;timestamp;temperature;humidity
4354;DHT22;11018;51.258;6.806;2022-09-06T00:00:31;21.70;22.90
4354;DHT22;11018;51.258;6.806;2022-09-06T00:02:59;21.70;22.90
4354;DHT22;11018;51.258;6.806;2022-09-06T00:05:26;21.70;23.00
4354;DHT22;11018;51.258;6.806;2022-09-06T00:07:52;21.70;23.10
4354;DHT22;11018;51.258;6.806;2022-09-06T00:10:18;21.70;23.30
4354;DHT22;11018;51.258;6.806;2022-09-06T00:12:43;21.70;22.80
4354;DHT22;11018;51.258;6.806;2022-09-06T00:15:09;21.70;22.50
4354;DHT22;11018;51.258;6.806;2022-09-06T00:17:35;21.80;21.70
4354;DHT22;11018;51.258;6.806;2022-09-06T00:20:02;22.10;20.60
4354;DHT22;11018;51.258;6.806;2022-09-06T00:22:28;22.50;20.90
4354;DHT22;11018;51.258;6.806;2022-09-06T00:24:53;22.70;20.30
4354;DHT22;11018;51.258;6.806;2022-09-06T00:27:19;22.70;19.90
4354;DHT22;11018;51.258;6.806;2022-09-06T00:29:44;22.80;19.40
4354;DHT22;11018;51.258;6.806;2022-09-06T00:32:10;22.70;19.40
4354;DHT22;11018;51.258;6.806;2022-09-06T00:34:35;22.80;19.20
4354;DHT22;11018;51.258;6.806;2022-09-06T00:37:01;22.80;20.00
4354;DHT22;11018;51.258;6.806;2022-09-06T00:39:26;22.70;19.70
4354;DHT22;11018;51.258;6.806;2022-09-06T00:41:52;22.60;20.00
4354;DHT22;11018;51.258;6.806;2022-09-06T00:44:17;22.40;20.40
4354;DHT22;11018;51.258;6.806;2022-09-06T00:46:45;22.30;21.00
4354;DHT22;11018;51.258;6.806;2022-09-06T00:49:16;22.20;21.70
4354;DHT22;11018;51.258;6.806;2022-09-06T00:51:59;22.20;22.10
4354;DHT22;11018;51.258;6.806;2022-09-06T00:54:26;22.00;22.60
4354;DHT22;11018;51.258;6.806;2022-09-06T00:56:53;22.00;22.90
4354;DHT22;11018;51.258;6.806;2022-09-06T00:59:20;21.90;23.50
4354;DHT22;11018;51.258;6.806;2022-09-06T01:01:46;21.90;23.80
4354;DHT22;11018;51.258;6.806;2022-09-06T01:04:12;21.90;24.10
4354;DHT22;11018;51.258;6.806;2022-09-06T01:07:10;21.80;24.40
4354;DHT22;11018;51.258;6.806;2022-09-06T01:12:35;21.80;26.00
4354;DHT22;11018;51.258;6.806;2022-09-06T01:21:43;21.70;30.50
4354;DHT22;11018;51.258;6.806;2022-09-06T01:26:23;21.50;38.00
4354;DHT22;11018;51.258;6.806;2022-09-06T01:28:56;21.50;41.80
4354;DHT22;11018;51.258;6.806;2022-09-06T01:31:51;21.30;42.70
4354;DHT22;11018;51.258;6.806;2022-09-06T01:34:27;20.90;48.30
4354;DHT22;11018;51.258;6.806;2022-09-06T01:37:01;21.00;54.50
4354;DHT22;11018;51.258;6.806;2022-09-06T01:39:31;21.00;56.20
4354;DHT22;11018;51.258;6.806;2022-09-06T01:42:00;20.80;54.50
4354;DHT22;11018;51.258;6.806;2022-09-06T01:44:28;20.70;57.10
4354;DHT22;11018;51.258;6.806;2022-09-06T01:50:06;20.80;57.80
4354;DHT22;11018;51.258;6.806;2022-09-06T01:56:24;20.70;60.10
4354;DHT22;11018;51.258;6.806;2022-09-06T02:01:33;20.50;64.20
4354;DHT22;11018;51.258;6.806;2022-09-06T02:04:21;20.40;65.20
4354;DHT22;11018;51.258;6.806;2022-09-06T02:06:53;20.20;66.60
4354;DHT22;11018;51.258;6.806;2022-09-06T02:09:24;20.10;70.20
4354;DHT22;11018;51.258;6.806;2022-09-06T02:11:56;20.10;71.80
4354;DHT22;11018;51.258;6.806;2022-09-06T02:14:32;20.00;73.30
4354;DHT22;11018;51.258;6.806;2022-09-06T02:17:00;19.90;72.70
4354;DHT22;11018;51.258;6.806;2022-09-06T02:19:37;20.00;69.80
4354;DHT22;11018;51.258;6.806;2022-09-06T02:22:07;19.90;68.20
4354;DHT22;11018;51.258;6.806;2022-09-06T02:24:35;19.90;73.50
4354;DHT22;11018;51.258;6.806;2022-09-06T02:27:02;19.90;74.70
4354;DHT22;11018;51.258;6.806;2022-09-06T02:29:28;20.10;76.40
4354;DHT22;11018;51.258;6.806;2022-09-06T02:32:03;20.00;77.00
4354;DHT22;11018;51.258;6.806;2022-09-06T02:34:31;19.90;79.10
4354;DHT22;11018;51.258;6.806;2022-09-06T02:36:57;19.90;81.50
4354;DHT22;11018;51.258;6.806;2022-09-06T02:39:24;19.80;82.50
4354;DHT22;11018;51.258;6.806;2022-09-06T02:41:49;19.70;85.80
4354;DHT22;11018;51.258;6.806;2022-09-06T02:44:15;19.70;88.50
4354;DHT22;11018;51.258;6.806;2022-09-06T02:46:41;19.70;89.80
4354;DHT22;11018;51.258;6.806;2022-09-06T02:49:06;19.70;91.00
4354;DHT22;11018;51.258;6.806;2022-09-06T02:51:39;19.60;93.00
4354;DHT22;11018;51.258;6.806;2022-09-06T02:54:05;19.60;95.60
4354;DHT22;11018;51.258;6.806;2022-09-06T02:56:31;19.70;94.80
4354;DHT22;11018;51.258;6.806;2022-09-06T02:58:58;19.60;95.00
4354;DHT22;11018;51.258;6.806;2022-09-06T03:01:24;19.60;95.90
4354;DHT22;11018;51.258;6.806;2022-09-06T03:03:49;19.60;95.50
4354;DHT22;11018;51.258;6.806;2022-09-06T03:06:15;19.50;95.50
4354;DHT22;11018;51.258;6.806;2022-09-06T03:08:40;19.50;97.30
4354;DHT22;11018;51.258;6.806;2022-09-06T03:11:06;19.50;98.40
4354;DHT22;11018;51.258;6.806;2022-09-06T03:13:32;19.60;95.20
4354;DHT22;11018;51.258;6.806;2022-09-06T03:15:59;19.60;94.30
4354;DHT22;11018;51.258;6.806;2022-09-06T03:18:27;19.50;96.60
4354;DHT22;11018;51.258;6.806;2022-09-06T03:20:53;19.40;96.90
4354;DHT22;11018;51.258;6.806;2022-09-06T03:23:23;19.40;97.10
4354;DHT22;11018;51.258;6.806;2022-09-06T03:25:49;19.40;96.80
4354;DHT22;11018;51.258;6.806;2022-09-06T03:28:15;19.30;98.00
4354;DHT22;11018;51.258;6.806;2022-09-06T03:30:44;19.20;99.90
4354;DHT22;11018;51.258;6.806;2022-09-06T03:33:10;19.20;99.90
4354;DHT22;11018;51.258;6.806;2022-09-06T03:35:35;19.20;99.90
4354;DHT22;11018;51.258;6.806;2022-09-06T03:38:01;19.30;99.90
4354;DHT22;11018;51.258;6.806;2022-09-06T03:40:26;19.30;97.20
4354;DHT22;11018;51.258;6.806;2022-09-06T03:42:52;19.30;96.50
4354;DHT22;11018;51.258;6.806;2022-09-06T03:45:18;19.20;95.40
4354;DHT22;11018;51.258;6.806;2022-09-06T03:47:43;19.20;95.00
4354;DHT22;11018;51.258;6.806;2022-09-06T03:50:09;19.20;94.20
4354;DHT22;11018;51.258;6.806;2022-09-06T03:52:35;19.40;93.20
4354;DHT22;11018;51.258;6.806;2022-09-06T03:55:00;19.40;91.80
4354;DHT22;11018;51.258;6.806;2022-09-06T03:57:27;19.40;89.10
4354;DHT22;11018;51.258;6.806;2022-09-06T03:59:52;19.40;88.60
4354;DHT22;11018;51.258;6.806;2022-09-06T04:02:18;19.30;87.70
4354;DHT22;11018;51.258;6.806;2022-09-06T04:04:43;19.30;87.20
4354;DHT22;11018;51.258;6.806;2022-09-06T04:07:09;19.30;87.30
4354;DHT22;11018;51.258;6.806;2022-09-06T04:09:34;19.30;88.50
4354;DHT22;11018;51.258;6.806;2022-09-06T04:12:00;19.20;89.20
4354;DHT22;11018;51.258;6.806;2022-09-06T04:14:26;19.20;89.50
4354;DHT22;11018;51.258;6.806;2022-09-06T04:16:51;19.10;90.70
4354;DHT22;11018;51.258;6.806;2022-09-06T04:19:17;19.10;90.50
4354;DHT22;11018;51.258;6.806;2022-09-06T04:21:42;19.00;91.90
4354;DHT22;11018;51.258;6.806;2022-09-06T04:24:08;19.00;92.00
4354;DHT22;11018;51.258;6.806;2022-09-06T04:26:34;18.90;92.70
4354;DHT22;11018;51.258;6.806;2022-09-06T04:28:59;18.80;94.30
4354;DHT22;11018;51.258;6.806;2022-09-06T04:31:25;18.70;95.10
4354;DHT22;11018;51.258;6.806;2022-09-06T04:33:50;18.60;96.40
4354;DHT22;11018;51.258;6.806;2022-09-06T04:36:16;18.50;98.10
4354;DHT22;11018;51.258;6.806;2022-09-06T04:38:43;18.40;98.90
4354;DHT22;11018;51.258;6.806;2022-09-06T04:41:14;18.40;99.20
4354;DHT22;11018;51.258;6.806;2022-09-06T04:43:40;18.40;98.30
4354;DHT22;11018;51.258;6.806;2022-09-06T04:46:26;18.40;99.30
4354;DHT22;11018;51.258;6.806;2022-09-06T04:48:53;18.30;98.90
4354;DHT22;11018;51.258;6.806;2022-09-06T04:51:19;18.20;99.90
4354;DHT22;11018;51.258;6.806;2022-09-06T04:53:45;18.20;99.90
4354;DHT22;11018;51.258;6.806;2022-09-06T04:56:14;18.20;99.90
4354;DHT22;11018;51.258;6.806;2022-09-06T04:58:40;18.20;99.90
4354;DHT22;11018;51.258;6.806;2022-09-06T05:01:06;18.10;99.90
4354;DHT22;11018;51.258;6.806;2022-09-06T05:03:32;18.10;99.90
4354;DHT22;11018;51.258;6.806;2022-09-06T05:06:23;18.10;99.90
4354;DHT22;11018;51.258;6.806;2022-09-06T05:08:50;18.10;99.90
4354;DHT22;11018;51.258;6.806;2022-09-06T05:11:16;18.00;99.90
4354;DHT22;11018;51.258;6.806;2022-09-06T05:13:41;18.00;99.90
4354;DHT22;11018;51.258;6.806;2022-09-06T05:16:08;18.00;99.90
4354;DHT22;11018;51.258;6.806;2022-09-06T05:18:34;17.90;99.90
4354;DHT22;11018;51.258;6.806;2022-09-06T05:21:00;17.90;99.90
4354;DHT22;11018;51.258;6.806;2022-09-06T05:23:26;17.90;99.90
4354;DHT22;11018;51.258;6.806;2022-09-06T05:25:52;17.90;99.90
4354;DHT22;11018;51.258;6.806;2022-09-06T05:28:18;18.00;99.90
4354;DHT22;11018;51.258;6.806;2022-09-06T05:30:44;18.00;99.90
4354;DHT22;11018;51.258;6.806;2022-09-06T05:33:12;18.00;99.90
4354;DHT22;11018;51.258;6.806;2022-09-06T05:35:38;18.00;99.90
4354;DHT22;11018;51.258;6.806;2022-09-06T05:38:04;18.00;99.90
4354;DHT22;11018;51.258;6.806;2022-09-06T05:40:30;18.10;99.90
4354;DHT22;11018;51.258;6.806;2022-09-06T05:42:55;18.20;99.90
4354;DHT22;11018;51.258;6.806;2022-09-06T05:45:21;18.20;99.90
4354;DHT22;11018;51.258;6.806;2022-09-06T05:47:47;18.40;99.90
4354;DHT22;11018;51.258;6.806;2022-09-06T05:50:12;18.50;99.90
4354;DHT22;11018;51.258;6.806;2022-09-06T05:52:38;18.60;99.20
4354;DHT22;11018;51.258;6.806;2022-09-06T05:55:05;18.70;97.30
4354;DHT22;11018;51.258;6.806;2022-09-06T05:57:31;18.80;95.20
4354;DHT22;11018;51.258;6.806;2022-09-06T05:59:56;18.90;93.60
4354;DHT22;11018;51.258;6.806;2022-09-06T06:02:22;18.90;92.80
4354;DHT22;11018;51.258;6.806;2022-09-06T06:04:48;19.10;90.70
4354;DHT22;11018;51.258;6.806;2022-09-06T06:07:14;19.00;90.10
4354;DHT22;11018;51.258;6.806;2022-09-06T06:09:40;19.20;87.30
4354;DHT22;11018;51.258;6.806;2022-09-06T06:12:06;19.20;86.50
4354;DHT22;11018;51.258;6.806;2022-09-06T06:14:32;19.30;85.80
4354;DHT22;11018;51.258;6.806;2022-09-06T06:16:58;19.30;84.40
4354;DHT22;11018;51.258;6.806;2022-09-06T06:19:24;19.40;83.20
4354;DHT22;11018;51.258;6.806;2022-09-06T06:21:51;19.40;83.10
4354;DHT22;11018;51.258;6.806;2022-09-06T06:24:16;19.50;81.60
4354;DHT22;11018;51.258;6.806;2022-09-06T06:26:42;19.60;80.00
4354;DHT22;11018;51.258;6.806;2022-09-06T06:29:07;19.70;78.50
4354;DHT22;11018;51.258;6.806;2022-09-06T06:31:35;19.80;75.90
4354;DHT22;11018;51.258;6.806;2022-09-06T06:34:01;20.00;74.80
4354;DHT22;11018;51.258;6.806;2022-09-06T06:36:32;20.10;72.20
4354;DHT22;11018;51.258;6.806;2022-09-06T06:38:59;20.10;71.30
4354;DHT22;11018;51.258;6.806;2022-09-06T06:41:27;20.30;69.30
4354;DHT22;11018;51.258;6.806;2022-09-06T06:43:54;20.30;67.40
4354;DHT22;11018;51.258;6.806;2022-09-06T06:46:25;20.40;66.10
4354;DHT22;11018;51.258;6.806;2022-09-06T06:48:51;20.50;65.10
4354;DHT22;11018;51.258;6.806;2022-09-06T06:51:19;20.60;63.10
4354;DHT22;11018;51.258;6.806;2022-09-06T06:53:46;20.70;62.00
4354;DHT22;11018;51.258;6.806;2022-09-06T06:56:21;20.80;62.30
4354;DHT22;11018;51.258;6.806;2022-09-06T06:58:49;20.70;62.10
4354;DHT22;11018;51.258;6.806;2022-09-06T07:01:17;20.80;60.50
4354;DHT22;11018;51.258;6.806;2022-09-06T07:03:44;20.90;58.90
4354;DHT22;11018;51.258;6.806;2022-09-06T07:06:11;21.00;56.60
4354;DHT22;11018;51.258;6.806;2022-09-06T07:08:37;21.10;56.00
4354;DHT22;11018;51.258;6.806;2022-09-06T07:11:04;21.10;55.40
4354;DHT22;11018;51.258;6.806;2022-09-06T07:13:30;21.20;53.60
4354;DHT22;11018;51.258;6.806;2022-09-06T07:16:12;21.30;53.60
4354;DHT22;11018;51.258;6.806;2022-09-06T07:18:40;21.40;52.20
4354;DHT22;11018;51.258;6.806;2022-09-06T07:21:11;21.50;51.70
4354;DHT22;11018;51.258;6.806;2022-09-06T07:23:38;21.50;51.10
4354;DHT22;11018;51.258;6.806;2022-09-06T07:26:04;21.60;50.70
4354;DHT22;11018;51.258;6.806;2022-09-06T07:28:30;21.70;50.20
4354;DHT22;11018;51.258;6.806;2022-09-06T07:30:56;21.80;48.40
4354;DHT22;11018;51.258;6.806;2022-09-06T07:33:23;21.80;47.70
4354;DHT22;11018;51.258;6.806;2022-09-06T07:35:59;22.00;46.70
4354;DHT22;11018;51.258;6.806;2022-09-06T07:38:26;22.10;45.80
4354;DHT22;11018;51.258;6.806;2022-09-06T07:40:54;22.20;44.80
4354;DHT22;11018;51.258;6.806;2022-09-06T07:43:20;22.40;43.50
4354;DHT22;11018;51.258;6.806;2022-09-06T07:45:46;22.40;43.00
4354;DHT22;11018;51.258;6.806;2022-09-06T07:48:12;22.50;42.30
4354;DHT22;11018;51.258;6.806;2022-09-06T07:50:37;22.60;40.90
4354;DHT22;11018;51.258;6.806;2022-09-06T07:53:04;22.70;39.90
4354;DHT22;11018;51.258;6.806;2022-09-06T07:55:30;22.80;39.00
4354;DHT22;11018;51.258;6.806;2022-09-06T07:57:55;22.90;37.70
4354;DHT22;11018;51.258;6.806;2022-09-06T08:00:21;23.00;37.50
4354;DHT22;11018;51.258;6.806;2022-09-06T08:02:47;23.00;37.10
4354;DHT22;11018;51.258;6.806;2022-09-06T08:05:12;23.10;36.40
4354;DHT22;11018;51.258;6.806;2022-09-06T08:07:38;23.20;36.40
4354;DHT22;11018;51.258;6.806;2022-09-06T08:10:03;23.30;35.90
4354;DHT22;11018;51.258;6.806;2022-09-06T08:12:29;23.30;34.10
4354;DHT22;11018;51.258;6.806;2022-09-06T08:14:55;23.40;34.00
4354;DHT22;11018;51.258;6.806;2022-09-06T08:17:20;23.60;32.70
4354;DHT22;11018;51.258;6.806;2022-09-06T08:19:46;23.60;32.20
4354;DHT22;11018;51.258;6.806;2022-09-06T08:22:12;23.70;31.40
4354;DHT22;11018;51.258;6.806;2022-09-06T08:24:37;23.90;30.70
4354;DHT22;11018;51.258;6.806;2022-09-06T08:27:03;23.90;30.50
4354;DHT22;11018;51.258;6.806;2022-09-06T08:29:32;23.90;30.30
4354;DHT22;11018;51.258;6.806;2022-09-06T08:31:58;23.90;29.50
4354;DHT22;11018;51.258;6.806;2022-09-06T08:34:23;24.00;29.90
4354;DHT22;11018;51.258;6.806;2022-09-06T08:36:49;24.10;29.50
4354;DHT22;11018;51.258;6.806;2022-09-06T08:39:15;24.10;28.30
4354;DHT22;11018;51.258;6.806;2022-09-06T08:41:59;24.10;28.30
4354;DHT22;11018;51.258;6.806;2022-09-06T08:47:08;24.20;27.00
4354;DHT22;11018;51.258;6.806;2022-09-06T08:49:45;24.30;26.00
4354;DHT22;11018;51.258;6.806;2022-09-06T09:00:53;24.80;24.90
4354;DHT22;11018;51.258;6.806;2022-09-06T09:03:36;25.10;23.80
4354;DHT22;11018;51.258;6.806;2022-09-06T09:06:07;25.00;22.50
4354;DHT22;11018;51.258;6.806;2022-09-06T09:08:39;25.00;22.40
4354;DHT22;11018;51.258;6.806;2022-09-06T09:11:13;25.10;22.60
4354;DHT22;11018;51.258;6.806;2022-09-06T09:16:28;25.20;21.20
4354;DHT22;11018;51.258;6.806;2022-09-06T09:18:58;25.20;21.20
4354;DHT22;11018;51.258;6.806;2022-09-06T09:21:27;25.30;20.10
4354;DHT22;11018;51.258;6.806;2022-09-06T09:23:56;25.30;20.40
4354;DHT22;11018;51.258;6.806;2022-09-06T09:26:24;25.30;20.10
4354;DHT22;11018;51.258;6.806;2022-09-06T09:29:10;25.40;19.90
4354;DHT22;11018;51.258;6.806;2022-09-06T09:31:39;25.60;19.90
4354;DHT22;11018;51.258;6.806;2022-09-06T09:34:28;25.60;19.10
4354;DHT22;11018;51.258;6.806;2022-09-06T09:37:23;25.60;19.00
4354;DHT22;11018;51.258;6.806;2022-09-06T09:39:52;25.70;18.00
4354;DHT22;11018;51.258;6.806;2022-09-06T09:44:54;25.70;17.20
4354;DHT22;11018;51.258;6.806;2022-09-06T09:47:29;25.70;17.20
4354;DHT22;11018;51.258;6.806;2022-09-06T09:49:56;25.70;16.90
4354;DHT22;11018;51.258;6.806;2022-09-06T09:52:29;25.80;16.50
4354;DHT22;11018;51.258;6.806;2022-09-06T09:55:00;25.80;16.60
4354;DHT22;11018;51.258;6.806;2022-09-06T09:57:29;25.90;16.80
4354;DHT22;11018;51.258;6.806;2022-09-06T09:59:59;25.80;17.00
4354;DHT22;11018;51.258;6.806;2022-09-06T10:02:34;25.90;15.50
4354;DHT22;11018;51.258;6.806;2022-09-06T10:07:46;26.30;15.10
4354;DHT22;11018;51.258;6.806;2022-09-06T10:10:24;26.30;14.70
4354;DHT22;11018;51.258;6.806;2022-09-06T10:15:37;26.50;15.30
4354;DHT22;11018;51.258;6.806;2022-09-06T10:18:03;26.50;15.00
4354;DHT22;11018;51.258;6.806;2022-09-06T10:20:45;26.40;15.00
4354;DHT22;11018;51.258;6.806;2022-09-06T10:23:36;26.50;14.30
4354;DHT22;11018;51.258;6.806;2022-09-06T10:26:14;26.60;14.50
4354;DHT22;11018;51.258;6.806;2022-09-06T10:28:41;26.60;14.40
4354;DHT22;11018;51.258;6.806;2022-09-06T10:34:34;26.60;14.70
4354;DHT22;11018;51.258;6.806;2022-09-06T10:37:28;26.70;14.40
4354;DHT22;11018;51.258;6.806;2022-09-06T10:40:05;26.70;14.40
4354;DHT22;11018;51.258;6.806;2022-09-06T10:42:42;26.90;14.20
4354;DHT22;11018;51.258;6.806;2022-09-06T10:50:20;27.30;14.10
4354;DHT22;11018;51.258;6.806;2022-09-06T10:52:47;27.40;13.80
4354;DHT22;11018;51.258;6.806;2022-09-06T10:55:17;27.50;13.70
4354;DHT22;11018;51.258;6.806;2022-09-06T10:57:47;27.50;12.90
4354;DHT22;11018;51.258;6.806;2022-09-06T11:00:15;27.40;13.30
4354;DHT22;11018;51.258;6.806;2022-09-06T11:05:30;27.40;13.60
4354;DHT22;11018;51.258;6.806;2022-09-06T11:08:00;27.40;14.10
4354;DHT22;11018;51.258;6.806;2022-09-06T11:10:29;27.50;13.60
4354;DHT22;11018;51.258;6.806;2022-09-06T11:13:05;27.50;13.60
4354;DHT22;11018;51.258;6.806;2022-09-06T11:18:31;27.50;13.60
4354;DHT22;11018;51.258;6.806;2022-09-06T11:24:13;27.60;13.10
4354;DHT22;11018;51.258;6.806;2022-09-06T11:26:44;27.70;12.70
4354;DHT22;11018;51.258;6.806;2022-09-06T11:29:24;27.70;13.20
4354;DHT22;11018;51.258;6.806;2022-09-06T11:31:58;27.70;13.20
4354;DHT22;11018;51.258;6.806;2022-09-06T11:34:35;27.60;13.60
4354;DHT22;11018;51.258;6.806;2022-09-06T11:39:37;27.80;12.80
4354;DHT22;11018;51.258;6.806;2022-09-06T11:47:47;27.90;13.00
4354;DHT22;11018;51.258;6.806;2022-09-06T11:50:25;27.90;12.80
4354;DHT22;11018;51.258;6.806;2022-09-06T11:53:16;28.00;13.40
4354;DHT22;11018;51.258;6.806;2022-09-06T12:06:21;28.20;13.00
4354;DHT22;11018;51.258;6.806;2022-09-06T12:08:49;28.30;13.30
4354;DHT22;11018;51.258;6.806;2022-09-06T12:11:37;28.30;13.00
4354;DHT22;11018;51.258;6.806;2022-09-06T12:27:57;29.00;13.00
4354;DHT22;11018;51.258;6.806;2022-09-06T12:30:36;29.10;12.60
4354;DHT22;11018;51.258;6.806;2022-09-06T12:35:51;29.30;12.50
4354;DHT22;11018;51.258;6.806;2022-09-06T12:38:22;29.40;12.00
4354;DHT22;11018;51.258;6.806;2022-09-06T12:40:49;29.40;12.30
4354;DHT22;11018;51.258;6.806;2022-09-06T12:43:23;29.40;12.10
4354;DHT22;11018;51.258;6.806;2022-09-06T12:45:50;29.50;11.80
4354;DHT22;11018;51.258;6.806;2022-09-06T12:48:28;29.60;11.80
4354;DHT22;11018;51.258;6.806;2022-09-06T12:51:06;29.80;11.10
4354;DHT22;11018;51.258;6.806;2022-09-06T12:53:32;29.80;10.60
4354;DHT22;11018;51.258;6.806;2022-09-06T12:56:10;29.70;10.90
4354;DHT22;11018;51.258;6.806;2022-09-06T12:58:39;29.70;10.80
4354;DHT22;11018;51.258;6.806;2022-09-06T13:01:26;29.80;9.80
4354;DHT22;11018;51.258;6.806;2022-09-06T13:04:22;29.60;10.10
4354;DHT22;11018;51.258;6.806;2022-09-06T13:06:49;29.80;8.40
4354;DHT22;11018;51.258;6.806;2022-09-06T13:09:18;29.80;8.30
4354;DHT22;11018;51.258;6.806;2022-09-06T13:11:48;29.80;7.60
4354;DHT22;11018;51.258;6.806;2022-09-06T13:16:46;29.80;8.20
4354;DHT22;11018;51.258;6.806;2022-09-06T13:19:15;29.70;8.80
4354;DHT22;11018;51.258;6.806;2022-09-06T13:21:43;29.80;8.90
4354;DHT22;11018;51.258;6.806;2022-09-06T13:27:21;29.80;8.80
4354;DHT22;11018;51.258;6.806;2022-09-06T13:29:57;30.00;9.70
4354;DHT22;11018;51.258;6.806;2022-09-06T13:32:25;30.30;9.40
4354;DHT22;11018;51.258;6.806;2022-09-06T13:34:51;30.80;7.30
4354;DHT22;11018;51.258;6.806;2022-09-06T13:37:28;31.20;6.60
4354;DHT22;11018;51.258;6.806;2022-09-06T13:39:54;31.60;5.20
4354;DHT22;11018;51.258;6.806;2022-09-06T13:42:34;31.30;6.10
4354;DHT22;11018;51.258;6.806;2022-09-06T13:45:24;31.20;6.30
4354;DHT22;11018;51.258;6.806;2022-09-06T13:47:51;30.40;7.20
4354;DHT22;11018;51.258;6.806;2022-09-06T13:50:16;30.30;7.80
4354;DHT22;11018;51.258;6.806;2022-09-06T13:52:42;31.00;7.10
4354;DHT22;11018;51.258;6.806;2022-09-06T13:55:07;31.80;5.40
4354;DHT22;11018;51.258;6.806;2022-09-06T13:57:33;32.50;4.40
4354;DHT22;11018;51.258;6.806;2022-09-06T13:59:58;33.00;1.00
4354;DHT22;11018;51.258;6.806;2022-09-06T14:02:24;32.70;1.00
4354;DHT22;11018;51.258;6.806;2022-09-06T14:04:49;32.30;1.00
4354;DHT22;11018;51.258;6.806;2022-09-06T14:07:15;32.60;1.00
4354;DHT22;11018;51.258;6.806;2022-09-06T14:09:41;32.90;1.00
4354;DHT22;11018;51.258;6.806;2022-09-06T14:12:06;33.30;1.00
4354;DHT22;11018;51.258;6.806;2022-09-06T14:14:33;32.40;1.00
4354;DHT22;11018;51.258;6.806;2022-09-06T14:16:59;32.10;1.00
4354;DHT22;11018;51.258;6.806;2022-09-06T14:19:24;32.70;1.00
4354;DHT22;11018;51.258;6.806;2022-09-06T14:21:50;33.60;1.00
4354;DHT22;11018;51.258;6.806;2022-09-06T14:24:16;34.20;1.00
4354;DHT22;11018;51.258;6.806;2022-09-06T14:26:42;34.30;1.00
4354;DHT22;11018;51.258;6.806;2022-09-06T14:29:07;34.60;1.00
4354;DHT22;11018;51.258;6.806;2022-09-06T14:31:33;34.40;1.00
4354;DHT22;11018;51.258;6.806;2022-09-06T14:34:00;34.70;1.00
4354;DHT22;11018;51.258;6.806;2022-09-06T14:36:27;34.90;1.00
4354;DHT22;11018;51.258;6.806;2022-09-06T14:38:56;35.20;1.00
4354;DHT22;11018;51.258;6.806;2022-09-06T14:41:21;35.70;1.00
4354;DHT22;11018;51.258;6.806;2022-09-06T14:43:52;35.90;1.00
4354;DHT22;11018;51.258;6.806;2022-09-06T14:46:20;36.30;1.00
4354;DHT22;11018;51.258;6.806;2022-09-06T14:48:46;36.40;1.00
4354;DHT22;11018;51.258;6.806;2022-09-06T14:51:17;36.60;1.00
4354;DHT22;11018;51.258;6.806;2022-09-06T14:53:47;36.90;1.00
4354;DHT22;11018;51.258;6.806;2022-09-06T14:56:13;37.30;1.00
4354;DHT22;11018;51.258;6.806;2022-09-06T14:58:40;37.60;1.00
4354;DHT22;11018;51.258;6.806;2022-09-06T15:01:10;37.80;1.00
4354;DHT22;11018;51.258;6.806;2022-09-06T15:03:44;35.50;1.00
4354;DHT22;11018;51.258;6.806;2022-09-06T15:06:13;34.40;1.00
4354;DHT22;11018;51.258;6.806;2022-09-06T15:08:38;34.40;1.00
4354;DHT22;11018;51.258;6.806;2022-09-06T15:11:05;34.60;1.00
4354;DHT22;11018;51.258;6.806;2022-09-06T15:13:33;34.20;1.00
4354;DHT22;11018;51.258;6.806;2022-09-06T15:15:58;34.40;1.00
4354;DHT22;11018;51.258;6.806;2022-09-06T15:18:24;34.70;1.00
4354;DHT22;11018;51.258;6.806;2022-09-06T15:20:49;33.90;1.00
4354;DHT22;11018;51.258;6.806;2022-09-06T15:23:15;34.20;1.00
4354;DHT22;11018;51.258;6.806;2022-09-06T15:25:51;35.20;1.00
4354;DHT22;11018;51.258;6.806;2022-09-06T15:28:19;36.30;1.00
4354;DHT22;11018;51.258;6.806;2022-09-06T15:30:46;36.40;1.00
4354;DHT22;11018;51.258;6.806;2022-09-06T15:33:12;37.00;1.00
4354;DHT22;11018;51.258;6.806;2022-09-06T15:35:42;36.60;1.00
4354;DHT22;11018;51.258;6.806;2022-09-06T15:38:10;35.10;1.00
4354;DHT22;11018;51.258;6.806;2022-09-06T15:40:36;34.80;1.00
4354;DHT22;11018;51.258;6.806;2022-09-06T15:43:02;35.50;1.00
4354;DHT22;11018;51.258;6.806;2022-09-06T15:48:07;36.30;1.00
4354;DHT22;11018;51.258;6.806;2022-09-06T15:50:38;35.90;1.00
4354;DHT22;11018;51.258;6.806;2022-09-06T15:53:05;35.30;1.00
4354;DHT22;11018;51.258;6.806;2022-09-06T15:55:30;35.10;1.00
4354;DHT22;11018;51.258;6.806;2022-09-06T15:58:14;35.30;1.00
4354;DHT22;11018;51.258;6.806;2022-09-06T16:00:40;36.00;1.00
4354;DHT22;11018;51.258;6.806;2022-09-06T16:03:06;36.60;1.00
4354;DHT22;11018;51.258;6.806;2022-09-06T16:05:33;36.10;1.00
4354;DHT22;11018;51.258;6.806;2022-09-06T16:07:59;36.10;1.00
4354;DHT22;11018;51.258;6.806;2022-09-06T16:10:25;35.60;1.00
4354;DHT22;11018;51.258;6.806;2022-09-06T16:12:51;35.20;1.00
4354;DHT22;11018;51.258;6.806;2022-09-06T16:15:17;34.70;1.00
4354;DHT22;11018;51.258;6.806;2022-09-06T16:17:43;34.60;1.00
4354;DHT22;11018;51.258;6.806;2022-09-06T16:20:09;34.80;1.00
4354;DHT22;11018;51.258;6.806;2022-09-06T16:22:35;35.40;1.00
4354;DHT22;11018;51.258;6.806;2022-09-06T16:25:01;35.90;1.00
4354;DHT22;11018;51.258;6.806;2022-09-06T16:27:27;36.20;1.00
4354;DHT22;11018;51.258;6.806;2022-09-06T16:29:52;36.00;1.00
4354;DHT22;11018;51.258;6.806;2022-09-06T16:32:18;34.40;1.00
4354;DHT22;11018;51.258;6.806;2022-09-06T16:34:43;32.80;1.00
4354;DHT22;11018;51.258;6.806;2022-09-06T16:37:10;31.80;1.00
4354;DHT22;11018;51.258;6.806;2022-09-06T16:39:36;31.20;1.00
4354;DHT22;11018;51.258;6.806;2022-09-06T16:42:01;30.80;1.00
4354;DHT22;11018;51.258;6.806;2022-09-06T16:44:27;30.60;1.00
4354;DHT22;11018;51.258;6.806;2022-09-06T16:46:53;30.40;1.00
4354;DHT22;11018;51.258;6.806;2022-09-06T16:49:21;30.10;1.00
4354;DHT22;11018;51.258;6.806;2022-09-06T16:51:48;30.00;1.00
4354;DHT22;11018;51.258;6.806;2022-09-06T16:54:15;29.90;1.00
4354;DHT22;11018;51.258;6.806;2022-09-06T16:56:41;29.70;1.00
4354;DHT22;11018;51.258;6.806;2022-09-06T16:59:08;29.60;1.00
4354;DHT22;11018;51.258;6.806;2022-09-06T17:01:36;29.50;1.00
4354;DHT22;11018;51.258;6.806;2022-09-06T17:04:02;29.30;1.00
4354;DHT22;11018;51.258;6.806;2022-09-06T17:06:28;29.20;1.00
4354;DHT22;11018;51.258;6.806;2022-09-06T17:08:57;29.20;1.00
4354;DHT22;11018;51.258;6.806;2022-09-06T17:11:25;29.10;1.00
4354;DHT22;11018;51.258;6.806;2022-09-06T17:13:52;29.10;1.00
4354;DHT22;11018;51.258;6.806;2022-09-06T17:16:19;28.90;1.00
4354;DHT22;11018;51.258;6.806;2022-09-06T17:19:05;28.80;1.00
4354;DHT22;11018;51.258;6.806;2022-09-06T17:21:31;28.70;1.00
4354;DHT22;11018;51.258;6.806;2022-09-06T17:23:57;28.70;1.00
4354;DHT22;11018;51.258;6.806;2022-09-06T17:26:26;28.70;1.00
4354;DHT22;11018;51.258;6.806;2022-09-06T17:28:51;28.70;1.00
4354;DHT22;11018;51.258;6.806;2022-09-06T17:31:17;28.70;1.00
4354;DHT22;11018;51.258;6.806;2022-09-06T17:33:47;28.60;1.00
4354;DHT22;11018;51.258;6.806;2022-09-06T17:36:22;28.50;1.00
4354;DHT22;11018;51.258;6.806;2022-09-06T17:38:48;28.60;1.00
4354;DHT22;11018;51.258;6.806;2022-09-06T17:41:22;28.50;1.00
4354;DHT22;11018;51.258;6.806;2022-09-06T17:43:49;28.50;1.00